Time;durP1;ratioP1;P1;durP2;ratioP2;P2;SDS_P1;SDS_P2;PMS_P1;PMS_P2;Temp;Humidity;BMP_temperature;BMP_pressure;BME280_temperature;BME280_humidity;BME280_pressure;Samples;Min_cycle;Max_cycle;Signal;HPM_P1;HPM_P2
2021/08/13 00:02:22;;;;;;;7.47;5.30;;;21.60;86.70;;;;;;4864600;29;20050;-87
2021/08/13 00:04:48;;;;;;;6.88;5.28;;;21.50;86.80;;;;;;4864376;29;20057;-87
2021/08/13 00:07:13;;;;;;;8.43;5.60;;;21.50;86.70;;;;;;4863867;29;20193;-87
2021/08/13 00:09:40;;;;;;;6.85;5.07;;;21.40;86.80;;;;;;4864624;29;20088;-88
2021/08/13 00:12:06;;;;;;;7.63;5.35;;;21.40;86.70;;;;;;4864171;29;20528;-87
2021/08/13 00:14:33;;;;;;;6.45;4.95;;;21.30;86.70;;;;;;4863666;29;20154;-86
2021/08/13 00:17:00;;;;;;;7.07;5.25;;;21.30;86.80;;;;;;4864337;29;20053;-87
2021/08/13 00:19:26;;;;;;;8.18;5.00;;;21.20;86.70;;;;;;4864379;29;20054;-87
2021/08/13 00:21:52;;;;;;;6.90;5.10;;;21.20;86.60;;;;;;4863595;29;20390;-87
2021/08/13 00:24:18;;;;;;;6.40;5.28;;;21.10;86.60;;;;;;4864260;29;20069;-87
2021/08/13 00:26:43;;;;;;;6.07;4.82;;;21.10;86.70;;;;;;4864417;29;20065;-87
2021/08/13 00:29:09;;;;;;;7.78;5.38;;;21.10;86.80;;;;;;4863671;29;20077;-87
2021/08/13 00:31:35;;;;;;;7.28;5.47;;;21.00;86.70;;;;;;4864276;29;20077;-86
2021/08/13 00:34:00;;;;;;;6.60;5.22;;;21.00;86.80;;;;;;4864313;29;20063;-87
2021/08/13 00:36:26;;;;;;;7.00;5.30;;;20.90;86.90;;;;;;4863509;29;20049;-87
2021/08/13 00:38:52;;;;;;;8.02;5.00;;;20.90;87.20;;;;;;4864292;29;20574;-87
2021/08/13 00:41:17;;;;;;;6.75;5.22;;;20.90;87.50;;;;;;4864223;29;20053;-87
2021/08/13 00:43:43;;;;;;;6.25;4.88;;;20.80;87.70;;;;;;4862921;29;20050;-86
2021/08/13 00:46:09;;;;;;;6.95;5.22;;;20.80;87.70;;;;;;4863328;29;20460;-85
2021/08/13 00:48:34;;;;;;;7.60;5.63;;;20.80;88.00;;;;;;4863296;29;20053;-86
2021/08/13 00:51:00;;;;;;;6.97;5.55;;;20.70;88.00;;;;;;4861928;29;20140;-86
2021/08/13 00:53:26;;;;;;;10.82;5.60;;;20.70;88.20;;;;;;4863294;29;20491;-86
2021/08/13 00:55:52;;;;;;;6.90;4.88;;;20.70;88.40;;;;;;4862659;29;20059;-85
2021/08/13 00:58:18;;;;;;;6.93;5.53;;;20.60;88.40;;;;;;4863697;29;20133;-85
2021/08/13 01:00:45;;;;;;;7.82;5.13;;;20.60;88.50;;;;;;4863878;29;20049;-86
2021/08/13 01:03:11;;;;;;;6.60;5.20;;;20.60;88.40;;;;;;4863467;29;20049;-86
2021/08/13 01:05:37;;;;;;;7.25;5.32;;;20.50;88.40;;;;;;4863785;29;20140;-86
2021/08/13 01:08:03;;;;;;;6.93;5.00;;;20.50;88.40;;;;;;4863616;29;20491;-86
2021/08/13 01:10:33;;;;;;;7.13;5.20;;;20.50;88.40;;;;;;4862537;29;20465;-85
2021/08/13 01:13:27;;;;;;;7.22;4.80;;;20.40;88.20;;;;;;4863941;29;20054;-86
2021/08/13 01:15:58;;;;;;;6.63;5.00;;;20.40;87.60;;;;;;4863835;29;20057;-86
2021/08/13 01:18:30;;;;;;;7.00;4.80;;;20.30;88.70;;;;;;4862835;29;20069;-86
2021/08/13 01:21:02;;;;;;;6.82;5.03;;;20.30;88.60;;;;;;4863855;29;20061;-86
2021/08/13 01:23:34;;;;;;;7.35;5.35;;;20.30;88.90;;;;;;4863786;29;20045;-85
2021/08/13 01:26:02;;;;;;;7.23;5.00;;;20.20;89.60;;;;;;4862321;29;20069;-85
2021/08/13 01:28:36;;;;;;;7.35;4.95;;;20.10;88.90;;;;;;4863000;29;20362;-86
2021/08/13 01:31:11;;;;;;;6.50;4.95;;;20.10;88.80;;;;;;4862411;29;20094;-86
2021/08/13 01:33:39;;;;;;;7.43;5.03;;;20.10;88.80;;;;;;4862879;29;20060;-86
2021/08/13 01:36:08;;;;;;;6.30;4.82;;;20.10;88.80;;;;;;4863152;29;20521;-85
2021/08/13 01:38:36;;;;;;;7.80;5.05;;;20.00;88.90;;;;;;4862333;29;20069;-86
2021/08/13 01:41:05;;;;;;;6.60;5.13;;;20.00;88.70;;;;;;4863360;29;20080;-85
2021/08/13 01:43:32;;;;;;;6.80;5.15;;;20.00;88.80;;;;;;4863352;29;20057;-85
2021/08/13 01:45:59;;;;;;;7.90;5.15;;;19.90;88.80;;;;;;4862434;29;20502;-86
2021/08/13 01:48:29;;;;;;;7.20;5.07;;;19.90;88.70;;;;;;4862729;29;20053;-86
2021/08/13 01:50:58;;;;;;;7.97;5.15;;;19.80;88.80;;;;;;4862360;29;20053;-85
2021/08/13 01:53:24;;;;;;;7.50;5.45;;;19.80;88.80;;;;;;4861672;29;20079;-85
2021/08/13 01:55:54;;;;;;;6.95;4.97;;;19.80;88.80;;;;;;4862114;29;20111;-85
2021/08/13 01:58:21;;;;;;;8.07;5.15;;;19.70;89.00;;;;;;4862309;29;20109;-85
2021/08/13 02:00:50;;;;;;;7.15;5.50;;;19.70;88.90;;;;;;4861305;29;20451;-85
2021/08/13 02:03:15;;;;;;;7.07;5.18;;;19.70;88.90;;;;;;4862138;29;20069;-86
2021/08/13 02:05:42;;;;;;;7.18;5.70;;;19.60;89.10;;;;;;4862881;29;20080;-85
2021/08/13 02:08:10;;;;;;;8.20;5.47;;;19.60;89.30;;;;;;4861922;29;20049;-85
2021/08/13 02:10:38;;;;;;;7.57;5.70;;;19.50;89.50;;;;;;4862518;29;20064;-86
2021/08/13 02:13:05;;;;;;;7.35;5.57;;;19.50;89.50;;;;;;4861895;29;20487;-86
2021/08/13 02:15:32;;;;;;;8.02;5.90;;;19.50;89.90;;;;;;4862198;29;20167;-85
2021/08/13 02:18:07;;;;;;;7.78;5.80;;;19.40;90.00;;;;;;4861919;29;20140;-85
2021/08/13 02:20:36;;;;;;;9.70;6.00;;;19.40;89.90;;;;;;4861151;29;20053;-86
2021/08/13 02:23:03;;;;;;;8.55;5.88;;;19.30;90.00;;;;;;4861613;29;20049;-86
2021/08/13 02:25:29;;;;;;;7.03;5.40;;;19.30;90.00;;;;;;4861347;29;20060;-85
2021/08/13 02:27:55;;;;;;;7.22;5.63;;;19.30;90.20;;;;;;4861522;29;20050;-85
2021/08/13 02:30:20;;;;;;;8.23;6.05;;;19.20;90.10;;;;;;4862310;29;20422;-86
2021/08/13 02:32:48;;;;;;;8.23;6.28;;;19.20;90.10;;;;;;4862038;29;20388;-85
2021/08/13 02:35:14;;;;;;;8.60;6.07;;;19.10;90.20;;;;;;4861314;29;20052;-85
2021/08/13 02:37:50;;;;;;;8.68;6.00;;;19.10;90.20;;;;;;4861996;29;20049;-86
2021/08/13 02:40:31;;;;;;;7.53;5.75;;;19.00;90.20;;;;;;4861952;29;20061;-86
2021/08/13 02:43:33;;;;;;;8.50;6.50;;;19.00;89.90;;;;;;4861188;29;20498;-85
2021/08/13 02:46:00;;;;;;;8.45;5.90;;;18.90;89.80;;;;;;4861728;29;20060;-85
2021/08/13 02:48:31;;;;;;;7.72;6.38;;;18.90;90.40;;;;;;4860877;29;20081;-85
2021/08/13 02:50:59;;;;;;;8.52;6.30;;;18.90;90.50;;;;;;4861425;29;20046;-85
2021/08/13 02:53:26;;;;;;;8.27;6.43;;;18.80;90.50;;;;;;4862407;29;20106;-86
2021/08/13 02:56:02;;;;;;;8.55;6.35;;;18.80;90.60;;;;;;4861630;29;20060;-86
2021/08/13 02:58:39;;;;;;;8.23;6.18;;;18.80;90.70;;;;;;4862576;29;20077;-86
2021/08/13 03:01:07;;;;;;;8.55;7.03;;;18.70;90.50;;;;;;4862306;29;20570;-85
2021/08/13 03:03:34;;;;;;;8.80;6.63;;;18.70;90.70;;;;;;4861402;29;20063;-85
2021/08/13 03:06:02;;;;;;;7.38;5.75;;;18.60;90.60;;;;;;4861869;29;20536;-85
2021/08/13 03:08:29;;;;;;;9.07;6.82;;;18.60;90.50;;;;;;4861880;29;20129;-86
2021/08/13 03:10:57;;;;;;;7.80;6.50;;;18.60;90.50;;;;;;4861146;29;20090;-85
2021/08/13 03:13:25;;;;;;;8.10;6.57;;;18.60;90.60;;;;;;4861753;29;20073;-85
2021/08/13 03:15:52;;;;;;;8.98;6.43;;;18.50;90.50;;;;;;4864370;29;20533;-85
2021/08/13 03:18:19;;;;;;;8.25;6.82;;;18.50;90.70;;;;;;4865183;29;20072;-86
2021/08/13 03:20:45;;;;;;;9.68;6.65;;;18.50;90.80;;;;;;4865709;29;20145;-86
2021/08/13 03:23:11;;;;;;;8.52;6.55;;;18.50;90.70;;;;;;4865848;29;20049;-85
2021/08/13 03:25:39;;;;;;;10.57;7.10;;;18.50;90.80;;;;;;4863974;29;20076;-86
2021/08/13 03:28:07;;;;;;;8.68;7.00;;;18.40;90.70;;;;;;4864687;29;20514;-85
2021/08/13 03:30:41;;;;;;;10.20;7.32;;;18.40;90.70;;;;;;4864060;29;20088;-85
2021/08/13 03:33:12;;;;;;;9.18;6.88;;;18.30;90.80;;;;;;4864888;29;20053;-85
2021/08/13 03:35:39;;;;;;;12.02;7.20;;;18.30;90.80;;;;;;4864920;29;20144;-85
2021/08/13 03:38:06;;;;;;;9.07;7.18;;;18.30;90.80;;;;;;4863963;29;20053;-86
2021/08/13 03:40:32;;;;;;;8.70;7.60;;;18.30;90.80;;;;;;4864742;29;20050;-85
2021/08/13 03:42:58;;;;;;;8.68;7.10;;;18.20;90.90;;;;;;4864302;29;20060;-85
2021/08/13 03:45:24;;;;;;;9.00;6.90;;;18.20;91.00;;;;;;4864078;29;20054;-85
2021/08/13 03:47:50;;;;;;;9.45;7.30;;;18.10;90.90;;;;;;4864427;29;20110;-86
2021/08/13 03:50:16;;;;;;;9.15;7.28;;;18.20;91.10;;;;;;4864545;29;20064;-86
2021/08/13 03:52:41;;;;;;;8.25;6.93;;;18.10;91.20;;;;;;4863583;29;20124;-85
2021/08/13 03:55:07;;;;;;;9.27;7.63;;;18.10;90.90;;;;;;4864550;29;20487;-85
2021/08/13 03:57:33;;;;;;;10.85;7.60;;;18.10;91.10;;;;;;4864165;29;20136;-86
2021/08/13 03:59:59;;;;;;;10.18;7.53;;;18.00;91.20;;;;;;4863893;29;20128;-85
2021/08/13 04:02:24;;;;;;;9.80;8.02;;;18.00;91.20;;;;;;4864177;29;20076;-85
2021/08/13 04:04:50;;;;;;;10.10;7.90;;;18.00;91.40;;;;;;4864584;29;20489;-86
2021/08/13 04:07:16;;;;;;;10.35;8.02;;;18.00;91.40;;;;;;4864141;29;20068;-85
2021/08/13 04:09:42;;;;;;;9.30;7.35;;;17.90;91.20;;;;;;4864609;29;20519;-86
2021/08/13 04:12:08;;;;;;;9.15;7.60;;;17.90;91.30;;;;;;4864435;29;20064;-86
2021/08/13 04:14:33;;;;;;;10.15;8.25;;;17.90;91.30;;;;;;4863687;29;20075;-85
2021/08/13 04:16:59;;;;;;;11.10;8.00;;;17.80;91.20;;;;;;4864155;29;20049;-85
2021/08/13 04:19:25;;;;;;;10.48;7.68;;;17.90;91.30;;;;;;4864050;29;20049;-86
2021/08/13 04:21:51;;;;;;;9.90;8.07;;;17.80;91.10;;;;;;4863085;29;20060;-85
2021/08/13 04:24:17;;;;;;;9.60;7.95;;;17.80;91.10;;;;;;4863975;29;20053;-86
2021/08/13 04:26:42;;;;;;;9.75;7.93;;;17.80;91.30;;;;;;4862751;29;20160;-86
2021/08/13 04:29:08;;;;;;;9.20;7.75;;;17.70;91.20;;;;;;4864193;29;20053;-86
2021/08/13 04:31:39;;;;;;;11.05;7.90;;;17.70;91.10;;;;;;4864491;29;20057;-85
2021/08/13 04:34:06;;;;;;;11.35;8.23;;;17.70;91.20;;;;;;4863028;29;20066;-85
2021/08/13 04:36:35;;;;;;;10.30;7.40;;;17.70;91.20;;;;;;4863835;29;20491;-86
2021/08/13 04:39:01;;;;;;;9.38;7.45;;;17.70;91.10;;;;;;4863497;29;20053;-85
2021/08/13 04:41:27;;;;;;;10.40;8.23;;;17.60;91.10;;;;;;4862936;29;20057;-86
2021/08/13 04:43:52;;;;;;;9.75;7.93;;;17.60;91.20;;;;;;4863552;29;20061;-86
2021/08/13 04:46:18;;;;;;;10.40;8.15;;;17.60;91.20;;;;;;4863647;29;20053;-85
2021/08/13 04:48:44;;;;;;;11.07;8.68;;;17.60;91.20;;;;;;4862655;29;20046;-86
2021/08/13 04:51:10;;;;;;;9.68;7.65;;;17.60;91.30;;;;;;4863560;29;20109;-85
2021/08/13 04:53:35;;;;;;;11.30;8.60;;;17.60;91.30;;;;;;4863948;29;20049;-85
2021/08/13 04:56:01;;;;;;;10.45;8.07;;;17.50;91.30;;;;;;4863815;29;20109;-85
2021/08/13 04:58:35;;;;;;;10.23;8.63;;;17.50;91.40;;;;;;4864207;29;20057;-85
2021/08/13 05:01:01;;;;;;;10.82;9.15;;;17.50;91.30;;;;;;4864332;29;20057;-85
2021/08/13 05:03:27;;;;;;;10.02;7.85;;;17.50;91.20;;;;;;4863746;29;20053;-86
2021/08/13 05:05:53;;;;;;;11.30;8.60;;;17.50;90.70;;;;;;4864564;29;20522;-86
2021/08/13 05:08:20;;;;;;;11.98;8.73;;;17.50;90.90;;;;;;4863962;29;20062;-86
2021/08/13 05:10:46;;;;;;;10.68;8.40;;;17.50;91.20;;;;;;4862992;29;20053;-86
2021/08/13 05:13:11;;;;;;;11.45;8.70;;;17.50;91.20;;;;;;4863532;29;20049;-85
2021/08/13 05:15:44;;;;;;;10.75;8.85;;;17.50;91.30;;;;;;4864238;29;20053;-84
2021/08/13 05:18:13;;;;;;;10.18;8.25;;;17.50;91.10;;;;;;4863569;29;20140;-85
2021/08/13 05:20:38;;;;;;;11.27;9.55;;;17.50;90.80;;;;;;4864055;29;20136;-84
2021/08/13 05:23:05;;;;;;;11.40;8.57;;;17.40;90.70;;;;;;4863258;29;20053;-86
2021/08/13 05:25:31;;;;;;;10.70;8.63;;;17.40;90.60;;;;;;4863643;29;20068;-85
2021/08/13 05:27:57;;;;;;;11.27;8.68;;;17.50;90.80;;;;;;4863698;29;20049;-84
2021/08/13 05:30:35;;;;;;;12.13;9.25;;;17.50;91.00;;;;;;4862210;29;20060;-85
2021/08/13 05:33:01;;;;;;;9.98;8.15;;;17.50;91.10;;;;;;4862942;29;20133;-87
2021/08/13 05:35:36;;;;;;;10.18;8.52;;;17.50;90.70;;;;;;4862848;29;20065;-86
2021/08/13 05:38:02;;;;;;;12.25;9.45;;;17.50;90.90;;;;;;4861510;29;20046;-86
2021/08/13 05:40:30;;;;;;;15.38;12.93;;;17.50;91.00;;;;;;4862431;29;20049;-86
2021/08/13 05:42:56;;;;;;;12.68;10.48;;;17.50;91.20;;;;;;4862600;29;20109;-86
2021/08/13 05:45:23;;;;;;;12.57;10.73;;;17.50;91.10;;;;;;4861703;29;20053;-85
2021/08/13 05:47:48;;;;;;;12.30;9.48;;;17.60;90.80;;;;;;4862392;29;20053;-84
2021/08/13 05:50:16;;;;;;;22.02;16.25;;;17.60;90.50;;;;;;4862548;29;20154;-85
2021/08/13 05:52:43;;;;;;;21.15;17.48;;;17.60;90.80;;;;;;4862061;29;20491;-85
2021/08/13 05:55:09;;;;;;;19.42;13.73;;;17.60;91.50;;;;;;4862557;29;20076;-85
2021/08/13 05:57:35;;;;;;;16.10;12.95;;;17.60;91.10;;;;;;4862805;29;20097;-85
2021/08/13 06:00:03;;;;;;;19.83;14.30;;;17.60;90.60;;;;;;4861895;29;20061;-85
2021/08/13 06:02:28;;;;;;;25.42;18.08;;;17.60;90.70;;;;;;4862427;29;20101;-84
2021/08/13 06:04:57;;;;;;;21.10;14.75;;;17.70;91.40;;;;;;4862523;29;20049;-85
2021/08/13 06:07:24;;;;;;;17.17;12.00;;;17.70;91.50;;;;;;4861663;29;20058;-85
2021/08/13 06:09:50;;;;;;;19.05;15.95;;;17.70;91.40;;;;;;4862697;29;20136;-85
2021/08/13 06:12:15;;;;;;;15.55;12.25;;;17.80;91.80;;;;;;4861619;29;20136;-86
2021/08/13 06:14:41;;;;;;;18.38;13.85;;;17.80;91.40;;;;;;4862572;29;20053;-86
2021/08/13 06:17:07;;;;;;;20.27;15.27;;;17.80;91.30;;;;;;4862756;29;20061;-85
2021/08/13 06:19:33;;;;;;;22.83;18.63;;;17.90;91.50;;;;;;4861608;29;20819;-85
2021/08/13 06:21:59;;;;;;;23.52;16.17;;;18.00;91.90;;;;;;4861783;29;20060;-84
2021/08/13 06:24:26;;;;;;;19.35;15.45;;;18.00;91.80;;;;;;4862475;29;20053;-84
2021/08/13 06:26:52;;;;;;;22.75;16.85;;;18.00;91.80;;;;;;4861031;29;20138;-85
2021/08/13 06:29:20;;;;;;;25.15;18.92;;;18.10;92.10;;;;;;4862284;29;20467;-86
2021/08/13 06:31:47;;;;;;;25.83;19.30;;;18.10;92.00;;;;;;4861918;29;20155;-84
2021/08/13 06:34:12;;;;;;;28.40;19.77;;;18.20;92.20;;;;;;4861453;29;20060;-85
2021/08/13 06:36:38;;;;;;;27.17;20.42;;;18.30;92.20;;;;;;4861711;29;20057;-87
2021/08/13 06:39:04;;;;;;;29.67;19.85;;;18.30;92.20;;;;;;4861951;29;20049;-85
2021/08/13 06:41:29;;;;;;;25.63;19.88;;;18.40;92.10;;;;;;4861141;29;20059;-84
2021/08/13 06:43:55;;;;;;;27.60;20.70;;;18.40;92.10;;;;;;4862154;29;20046;-86
2021/08/13 06:46:20;;;;;;;23.45;19.10;;;18.40;92.30;;;;;;4862026;29;20093;-84
2021/08/13 06:48:47;;;;;;;23.90;18.05;;;18.50;92.00;;;;;;4861349;29;20054;-85
2021/08/13 06:51:12;;;;;;;25.17;18.67;;;18.50;91.80;;;;;;4861494;29;20084;-85
2021/08/13 06:53:38;;;;;;;24.60;19.58;;;18.60;91.80;;;;;;4862079;29;20076;-84
2021/08/13 06:56:04;;;;;;;27.10;19.00;;;18.60;92.00;;;;;;4861746;29;20058;-85
2021/08/13 06:58:29;;;;;;;26.42;19.90;;;18.70;91.90;;;;;;4862397;29;20403;-84
2021/08/13 07:00:55;;;;;;;29.08;20.42;;;18.70;92.00;;;;;;4862140;29;20049;-86
2021/08/13 07:03:21;;;;;;;30.25;19.20;;;18.80;92.10;;;;;;4861033;29;20073;-85
2021/08/13 07:05:46;;;;;;;28.55;20.00;;;18.80;92.00;;;;;;4861815;29;20064;-86
2021/08/13 07:08:14;;;;;;;28.05;18.08;;;18.90;91.90;;;;;;4861845;29;20054;-86
2021/08/13 07:10:40;;;;;;;25.98;18.55;;;18.90;91.80;;;;;;4860710;29;20054;-85
2021/08/13 07:13:06;;;;;;;24.77;18.85;;;19.00;91.90;;;;;;4861274;29;20065;-86
2021/08/13 07:15:32;;;;;;;28.63;18.65;;;19.10;91.90;;;;;;4860331;29;20082;-86
2021/08/13 07:17:57;;;;;;;24.27;18.52;;;19.10;92.00;;;;;;4861496;29;20049;-86
2021/08/13 07:20:26;;;;;;;23.65;18.80;;;19.20;91.90;;;;;;4861240;29;20053;-86
2021/08/13 07:22:52;;;;;;;23.83;18.42;;;19.30;91.90;;;;;;4861420;29;20597;-86
2021/08/13 07:25:18;;;;;;;22.88;18.20;;;19.30;91.90;;;;;;4862294;29;20097;-86
2021/08/13 07:27:44;;;;;;;24.85;17.63;;;19.40;91.70;;;;;;4861277;29;20118;-86
2021/08/13 07:30:10;;;;;;;22.42;18.20;;;19.40;91.50;;;;;;4860256;29;20457;-87
2021/08/13 07:32:36;;;;;;;21.92;17.70;;;19.50;91.50;;;;;;4861147;29;20053;-87
2021/08/13 07:35:02;;;;;;;25.25;18.60;;;19.50;91.50;;;;;;4861573;29;20488;-87
2021/08/13 07:37:28;;;;;;;24.75;17.15;;;19.50;91.60;;;;;;4860751;29;20110;-86
2021/08/13 07:39:54;;;;;;;24.15;18.08;;;19.60;91.50;;;;;;4861351;29;20491;-85
2021/08/13 07:42:19;;;;;;;28.00;18.05;;;19.70;91.60;;;;;;4861461;29;20065;-86
2021/08/13 07:44:45;;;;;;;22.88;16.08;;;19.70;91.90;;;;;;4860453;29;20058;-86
2021/08/13 07:47:12;;;;;;;22.42;16.63;;;19.70;91.70;;;;;;4861176;29;20061;-86
2021/08/13 07:49:38;;;;;;;21.83;15.85;;;19.80;91.70;;;;;;4861728;29;20090;-87
2021/08/13 07:52:04;;;;;;;18.40;14.40;;;19.80;91.70;;;;;;4860988;29;20483;-86
2021/08/13 07:54:30;;;;;;;19.27;14.25;;;19.90;91.80;;;;;;4861235;29;20058;-87
2021/08/13 07:56:56;;;;;;;21.73;15.10;;;19.90;91.30;;;;;;4861328;29;20439;-86
2021/08/13 07:59:21;;;;;;;17.52;13.98;;;19.90;91.30;;;;;;4860189;29;20085;-86
2021/08/13 08:01:47;;;;;;;20.75;14.95;;;19.90;91.20;;;;;;4862773;29;20045;-86
2021/08/13 08:04:12;;;;;;;18.05;14.40;;;20.00;91.40;;;;;;4864420;29;20053;-87
2021/08/13 08:06:42;;;;;;;15.88;12.90;;;20.00;91.30;;;;;;4863660;29;20558;-89
2021/08/13 08:09:08;;;;;;;16.60;12.95;;;20.00;91.30;;;;;;4864519;29;20072;-87
2021/08/13 08:11:33;;;;;;;17.15;13.15;;;20.10;91.20;;;;;;4864404;29;20454;-87
2021/08/13 08:13:59;;;;;;;15.77;12.23;;;20.10;91.10;;;;;;4863504;29;20087;-85
2021/08/13 08:16:25;;;;;;;17.45;12.63;;;20.10;91.10;;;;;;4864310;29;20136;-86
2021/08/13 08:18:50;;;;;;;15.65;12.63;;;20.20;91.00;;;;;;4863359;29;20064;-86
2021/08/13 08:21:16;;;;;;;19.30;13.43;;;20.20;91.00;;;;;;4863780;29;20064;-87
2021/08/13 08:23:42;;;;;;;16.83;12.30;;;20.20;91.00;;;;;;4863893;29;20045;-86
2021/08/13 08:26:07;;;;;;;16.38;12.50;;;20.30;90.90;;;;;;4863103;29;20072;-87
2021/08/13 08:28:33;;;;;;;19.73;11.80;;;20.30;91.00;;;;;;4864398;29;20101;-85
2021/08/13 08:30:59;;;;;;;16.08;10.50;;;20.40;90.90;;;;;;4864281;29;20057;-88
2021/08/13 08:33:25;;;;;;;13.65;10.63;;;20.40;90.90;;;;;;4863147;29;20049;-88
2021/08/13 08:35:50;;;;;;;12.30;9.30;;;20.40;90.70;;;;;;4864219;29;20061;-87
2021/08/13 08:38:16;;;;;;;14.10;10.20;;;20.50;90.60;;;;;;4863911;29;20053;-87
2021/08/13 08:40:42;;;;;;;13.15;10.98;;;20.50;90.40;;;;;;4862931;29;20058;-86
2021/08/13 08:43:09;;;;;;;16.60;11.07;;;20.60;90.40;;;;;;4863976;29;20050;-86
2021/08/13 08:45:37;;;;;;;16.90;12.80;;;20.60;90.40;;;;;;4863722;29;20061;-87
2021/08/13 08:48:05;;;;;;;18.67;12.10;;;20.60;90.40;;;;;;4862887;29;20107;-87
2021/08/13 08:50:32;;;;;;;16.42;12.68;;;20.70;90.70;;;;;;4863235;29;20522;-87
2021/08/13 08:53:00;;;;;;;15.20;11.98;;;20.70;90.40;;;;;;4863681;29;20060;-86
2021/08/13 08:55:27;;;;;;;14.68;11.85;;;20.80;90.40;;;;;;4862953;29;20049;-86
2021/08/13 08:57:54;;;;;;;15.50;12.00;;;20.70;90.40;;;;;;4863712;29;20490;-86
2021/08/13 09:00:21;;;;;;;14.43;11.48;;;20.80;90.40;;;;;;4863587;29;20493;-88
2021/08/13 09:02:47;;;;;;;15.90;11.75;;;20.80;90.30;;;;;;4863323;29;20080;-86
2021/08/13 09:05:13;;;;;;;14.88;11.02;;;20.80;90.10;;;;;;4863642;29;20479;-86
2021/08/13 09:07:39;;;;;;;14.20;10.50;;;20.80;90.10;;;;;;4863521;29;20057;-86
2021/08/13 09:10:12;;;;;;;16.30;10.63;;;20.90;90.10;;;;;;4862353;29;20051;-86
2021/08/13 09:12:39;;;;;;;15.35;9.98;;;20.90;90.00;;;;;;4862862;29;20061;-86
2021/08/13 09:15:25;;;;;;;13.90;10.48;;;20.90;89.80;;;;;;4862661;29;20517;-87
2021/08/13 09:18:14;;;;;;;15.52;9.98;;;20.90;89.70;;;;;;4863489;29;20088;-85
2021/08/13 09:20:57;;;;;;;13.80;9.55;;;20.90;89.30;;;;;;4863640;29;20054;-85
2021/08/13 09:23:37;;;;;;;14.38;9.55;;;20.90;89.50;;;;;;4862775;29;20053;-86
2021/08/13 09:26:14;;;;;;;15.65;9.88;;;21.00;89.20;;;;;;4863452;29;20061;-84
2021/08/13 09:28:53;;;;;;;12.73;9.38;;;21.00;89.30;;;;;;4863074;29;20058;-84
2021/08/13 09:31:31;;;;;;;14.65;10.13;;;21.00;89.30;;;;;;4862567;29;20085;-85
2021/08/13 09:34:26;;;;;;;13.25;9.35;;;21.00;89.30;;;;;;4863245;29;20045;-86
2021/08/13 09:36:51;;;;;;;13.82;9.98;;;21.00;88.90;;;;;;4862342;29;20569;-86
2021/08/13 09:39:27;;;;;;;15.50;10.38;;;21.00;89.20;;;;;;4862599;29;20132;-86
2021/08/13 09:41:56;;;;;;;16.42;9.95;;;21.00;89.10;;;;;;4863052;29;20064;-86
2021/08/13 09:44:37;;;;;;;14.85;9.25;;;21.00;89.00;;;;;;4861957;29;20061;-86
2021/08/13 09:47:14;;;;;;;12.68;8.43;;;21.00;89.10;;;;;;4862789;29;20109;-85
2021/08/13 09:49:41;;;;;;;13.10;8.30;;;21.10;89.00;;;;;;4862575;29;20049;-86
2021/08/13 09:52:11;;;;;;;11.38;7.75;;;21.10;88.90;;;;;;4861612;29;20426;-85
2021/08/13 09:54:37;;;;;;;12.30;7.70;;;21.10;88.30;;;;;;4862641;29;20045;-86
2021/08/13 09:57:08;;;;;;;9.43;6.15;;;21.20;88.20;;;;;;4862346;29;20523;-86
2021/08/13 09:59:34;;;;;;;11.00;6.32;;;21.20;87.30;;;;;;4861925;29;20136;-87
2021/08/13 10:02:09;;;;;;;14.15;5.85;;;21.20;87.20;;;;;;4862961;29;20077;-86
2021/08/13 10:04:36;;;;;;;10.43;5.68;;;21.20;86.50;;;;;;4861675;29;20566;-86
2021/08/13 10:07:02;;;;;;;10.13;6.15;;;21.20;86.70;;;;;;4862411;29;20065;-85
2021/08/13 10:09:29;;;;;;;9.68;5.75;;;21.20;86.40;;;;;;4862533;29;20056;-86
2021/08/13 10:11:59;;;;;;;11.25;5.82;;;21.20;86.20;;;;;;4861469;29;20053;-84
2021/08/13 10:14:34;;;;;;;10.75;5.50;;;21.20;86.40;;;;;;4862372;29;20057;-86
2021/08/13 10:17:18;;;;;;;8.02;4.80;;;21.20;86.00;;;;;;4862149;29;20077;-86
2021/08/13 10:19:46;;;;;;;11.80;5.60;;;21.30;84.30;;;;;;4861378;29;20054;-85
2021/08/13 10:22:14;;;;;;;9.70;5.25;;;21.30;84.70;;;;;;4862297;29;20437;-85
2021/08/13 10:24:40;;;;;;;9.70;5.38;;;21.30;84.30;;;;;;4861763;29;20110;-86
2021/08/13 10:27:06;;;;;;;9.98;5.93;;;21.30;84.40;;;;;;4861057;29;20057;-85
2021/08/13 10:29:33;;;;;;;11.10;5.45;;;21.30;84.20;;;;;;4862471;29;20050;-86
2021/08/13 10:31:59;;;;;;;9.70;5.65;;;21.30;83.60;;;;;;4862594;29;20054;-84
2021/08/13 10:34:26;;;;;;;9.95;5.45;;;21.30;83.70;;;;;;4861490;29;20121;-86
2021/08/13 10:36:53;;;;;;;11.63;5.40;;;21.30;84.00;;;;;;4861989;29;20058;-84
2021/08/13 10:39:20;;;;;;;10.13;5.25;;;21.30;84.00;;;;;;4862584;29;20411;-86
2021/08/13 10:41:59;;;;;;;10.95;5.63;;;21.30;83.70;;;;;;4861520;29;20106;-86
2021/08/13 10:44:31;;;;;;;8.82;4.85;;;21.30;81.80;;;;;;4862368;29;20058;-85
2021/08/13 10:47:00;;;;;;;9.70;5.50;;;21.30;81.30;;;;;;4861165;29;20456;-85
2021/08/13 10:49:26;;;;;;;11.48;5.60;;;21.40;81.30;;;;;;4861738;29;20137;-88
2021/08/13 10:52:03;;;;;;;10.60;5.15;;;21.40;81.10;;;;;;4861747;29;20049;-86
2021/08/13 10:54:46;;;;;;;10.23;5.28;;;21.40;81.10;;;;;;4860844;29;20451;-86
2021/08/13 10:57:13;;;;;;;10.57;5.40;;;21.50;80.60;;;;;;4861643;29;20136;-86
2021/08/13 10:59:42;;;;;;;9.30;4.85;;;21.50;81.20;;;;;;4861540;29;20057;-86
2021/08/13 11:02:15;;;;;;;9.18;4.53;;;21.60;80.20;;;;;;4860739;29;20045;-84
2021/08/13 11:04:51;;;;;;;9.70;4.68;;;21.60;80.40;;;;;;4861416;29;20514;-86
2021/08/13 11:08:08;;;;;;;10.98;4.60;;;21.60;79.50;;;;;;4861596;29;20153;-86
2021/08/13 11:10:36;;;;;;;11.35;4.78;;;21.60;79.30;;;;;;4840060;29;20080;-85
2021/08/13 11:13:17;;;;;;;11.80;4.95;;;21.60;79.70;;;;;;4861113;29;20086;-85
2021/08/13 11:15:44;;;;;;;12.77;5.10;;;21.60;80.00;;;;;;4860800;29;20061;-87
2021/08/13 11:18:24;;;;;;;9.45;4.63;;;21.70;81.00;;;;;;4861837;29;20098;-85
2021/08/13 11:20:50;;;;;;;11.65;4.82;;;21.70;80.80;;;;;;4861506;29;20064;-87
2021/08/13 11:23:18;;;;;;;11.30;4.70;;;21.70;80.90;;;;;;4860960;29;20061;-89
2021/08/13 11:25:51;;;;;;;13.60;4.80;;;21.70;80.50;;;;;;4861182;29;20083;-86
2021/08/13 11:28:25;;;;;;;8.70;4.47;;;21.70;80.30;;;;;;4861480;29;20076;-86
2021/08/13 11:30:54;;;;;;;10.05;4.90;;;21.70;79.90;;;;;;4860834;29;20464;-86
2021/08/13 11:33:26;;;;;;;11.07;4.70;;;21.60;80.50;;;;;;4861417;29;20050;-87
2021/08/13 11:35:56;;;;;;;9.00;4.35;;;21.60;80.70;;;;;;4861739;29;20414;-84
2021/08/13 11:38:43;;;;;;;9.05;4.63;;;21.70;80.50;;;;;;4865375;29;20398;-86
2021/08/13 11:41:29;;;;;;;11.73;4.60;;;21.70;81.40;;;;;;4864979;29;20443;-86
2021/08/13 11:44:00;;;;;;;10.90;4.32;;;21.70;81.60;;;;;;4863991;29;20087;-87
2021/08/13 11:46:32;;;;;;;12.68;4.72;;;21.70;82.00;;;;;;4864861;29;20069;-86
2021/08/13 11:49:03;;;;;;;10.27;3.90;;;21.70;81.30;;;;;;4864989;29;20053;-86
2021/08/13 11:51:29;;;;;;;11.27;3.83;;;21.80;79.80;;;;;;4864053;29;20313;-88
2021/08/13 11:53:56;;;;;;;9.85;3.92;;;21.80;79.90;;;;;;4865388;29;20173;-86
2021/08/13 11:56:27;;;;;;;10.68;3.97;;;21.90;79.80;;;;;;4864612;29;20101;-86
2021/08/13 11:58:57;;;;;;;11.27;3.67;;;21.90;80.50;;;;;;4863843;29;20046;-88
2021/08/13 12:01:23;;;;;;;9.68;3.63;;;21.90;79.70;;;;;;4864591;29;20072;-86
2021/08/13 12:03:50;;;;;;;7.70;3.58;;;22.00;80.20;;;;;;4864467;29;20487;-85
2021/08/13 12:06:16;;;;;;;14.23;3.92;;;22.00;80.20;;;;;;4864555;29;20088;-86
2021/08/13 12:08:44;;;;;;;8.60;3.80;;;22.10;79.40;;;;;;4864585;29;20081;-87
2021/08/13 12:11:10;;;;;;;11.50;2.88;;;22.10;78.70;;;;;;4863509;29;20053;-88
2021/08/13 12:13:36;;;;;;;8.95;3.33;;;22.10;77.00;;;;;;4864312;29;20054;-86
2021/08/13 12:16:04;;;;;;;12.40;3.60;;;22.10;76.90;;;;;;4865197;29;20050;-86
2021/08/13 12:18:30;;;;;;;9.70;2.97;;;22.10;76.80;;;;;;4863677;29;20132;-87
2021/08/13 12:21:02;;;;;;;10.45;3.70;;;22.10;76.40;;;;;;4864365;29;20049;-87
2021/08/13 12:23:28;;;;;;;7.80;3.30;;;22.10;77.70;;;;;;4864083;29;20049;-87
2021/08/13 12:25:53;;;;;;;12.25;3.63;;;22.10;77.80;;;;;;4863222;29;20065;-86
2021/08/13 12:28:19;;;;;;;9.95;3.33;;;22.20;79.50;;;;;;4864545;29;20053;-87
2021/08/13 12:30:45;;;;;;;9.85;4.00;;;22.20;78.00;;;;;;4864434;29;20061;-86
2021/08/13 12:33:18;;;;;;;10.98;3.42;;;22.20;78.70;;;;;;4863136;29;20455;-86
2021/08/13 12:35:45;;;;;;;;;;;22.20;78.20;;;;;;4864687;29;20053;-87
2021/08/13 12:38:11;;;;;;;8.57;3.38;;;22.10;76.80;;;;;;4864048;29;20392;-88
2021/08/13 12:40:50;;;;;;;13.57;3.30;;;22.20;79.50;;;;;;4863401;29;20563;-86
2021/08/13 12:43:18;;;;;;;11.73;3.50;;;22.20;78.60;;;;;;4864143;29;20049;-87
2021/08/13 12:45:50;;;;;;;13.02;3.83;;;22.20;79.10;;;;;;4864156;29;20073;-88